createdAt,value
2018-12-13T00:01:27.912Z,55.85
2018-12-13T00:07:22.915Z,48.89
2018-12-13T00:13:17.925Z,59.85
2018-12-13T00:19:12.932Z,44.03
2018-12-13T00:25:07.910Z,40.73
2018-12-13T00:31:02.915Z,46.17
2018-12-13T00:36:57.907Z,46.92
2018-12-13T00:42:52.930Z,42.82
2018-12-13T00:48:47.929Z,31.43
2018-12-13T00:54:42.975Z,43.16
2018-12-13T01:00:37.933Z,32.47
2018-12-13T01:06:32.922Z,60.04
2018-12-13T01:12:28.007Z,58.82
2018-12-13T01:18:23.000Z,55.78
2018-12-13T01:24:17.938Z,59.38
2018-12-13T01:30:12.934Z,59.86
2018-12-13T01:36:07.961Z,51.91
2018-12-13T01:42:02.973Z,53
2018-12-13T01:47:57.965Z,57.09
2018-12-13T01:53:52.935Z,57.61
2018-12-13T01:59:47.963Z,51.69
2018-12-13T02:05:42.960Z,52.89
2018-12-13T02:11:37.986Z,46.81
2018-12-13T02:17:32.946Z,42.42
2018-12-13T02:23:27.965Z,37.83
2018-12-13T02:29:23.005Z,32.69
2018-12-13T02:35:17.991Z,35.69
2018-12-13T02:41:12.973Z,28.31
2018-12-13T02:47:07.967Z,31.27
2018-12-13T02:53:02.986Z,13.82
2018-12-13T02:58:58.011Z,11.3
2018-12-13T03:04:53.017Z,5.95
2018-12-13T03:10:48.056Z,5.98
2018-12-13T03:16:42.987Z,5.99
2018-12-13T03:22:38.000Z,2.9
2018-12-13T03:28:32.992Z,3.67
2018-12-13T03:34:27.994Z,2.74
2018-12-13T03:40:22.998Z,2.06
2018-12-13T03:46:18.031Z,1.97
2018-12-13T03:52:13.013Z,2.49
2018-12-13T03:58:08.026Z,1.96
2018-12-13T04:04:03.034Z,1.46
2018-12-13T04:09:58.046Z,1.61
2018-12-13T04:15:53.004Z,2.31
2018-12-13T04:21:48.044Z,2.86
2018-12-13T04:27:43.055Z,1.34
2018-12-13T04:33:38.039Z,1.65
2018-12-13T04:39:33.050Z,7.47
2018-12-13T04:45:28.021Z,11.55
2018-12-13T04:51:23.073Z,12.56
2018-12-13T04:57:18.033Z,14.27
2018-12-13T05:03:13.042Z,20.95
2018-12-13T05:09:08.052Z,12.09
2018-12-13T05:15:03.048Z,8.2
2018-12-13T05:20:58.054Z,8.99
2018-12-13T05:26:53.053Z,23.17
2018-12-13T05:32:48.051Z,15.18
2018-12-13T05:38:43.086Z,21.84
2018-12-13T05:44:38.063Z,28.36
2018-12-13T05:50:33.076Z,28.7
2018-12-13T05:56:28.084Z,28.82
2018-12-13T06:02:23.068Z,25.71
2018-12-13T06:08:18.063Z,24.27
2018-12-13T06:14:13.077Z,24.1
2018-12-13T06:20:08.068Z,24.58
2018-12-13T06:26:03.074Z,24.86
2018-12-13T06:31:58.098Z,26.34
2018-12-13T06:37:53.094Z,30.55
2018-12-13T06:43:48.099Z,28.05
2018-12-13T06:49:43.093Z,27.49
2018-12-13T06:55:38.124Z,26.76
2018-12-13T07:01:33.079Z,27.33
2018-12-13T07:07:28.132Z,17.09
2018-12-13T07:13:23.161Z,16.64
2018-12-13T07:19:18.145Z,18.23
2018-12-13T07:25:13.108Z,20.35
2018-12-13T07:31:08.127Z,9.65
2018-12-13T07:37:03.095Z,25.25
2018-12-13T07:42:58.116Z,22.3
2018-12-13T07:48:56.312Z,25.76
2018-12-13T07:54:48.100Z,31.72
2018-12-13T08:00:43.133Z,27.19
2018-12-13T08:06:38.112Z,24.28
2018-12-13T08:12:33.159Z,26.24
2018-12-13T08:18:28.198Z,22.86
2018-12-13T08:24:23.122Z,22.33
2018-12-13T08:30:18.137Z,23.12
2018-12-13T08:36:13.146Z,23.69
2018-12-13T08:42:08.150Z,29.41
2018-12-13T08:48:03.150Z,23.54
2018-12-13T08:53:58.173Z,20.65
2018-12-13T08:59:53.193Z,25.73
2018-12-13T09:05:48.165Z,20.08
2018-12-13T09:11:43.199Z,23.36
2018-12-13T09:17:38.147Z,11.08
2018-12-13T09:23:33.154Z,2.32
2018-12-13T09:29:28.217Z,2.54
2018-12-13T09:35:23.224Z,2.36
2018-12-13T09:41:18.236Z,2.99
2018-12-13T09:47:13.201Z,2.5
2018-12-13T09:53:08.187Z,9.61
2018-12-13T09:59:03.162Z,5.45
2018-12-13T10:04:58.175Z,4.26
2018-12-13T10:10:53.178Z,4.16
2018-12-13T10:16:48.233Z,4.65
2018-12-13T10:22:43.188Z,6.18
2018-12-13T10:28:38.194Z,4.16
2018-12-13T10:34:33.210Z,4.97
2018-12-13T10:40:28.231Z,4.88
2018-12-13T10:46:23.267Z,4.54
2018-12-13T10:52:18.266Z,7.21
2018-12-13T10:58:13.212Z,5.87
2018-12-13T11:04:08.246Z,29.06
2018-12-13T11:10:03.285Z,21.11
2018-12-13T11:15:58.224Z,17.16
2018-12-13T11:21:53.210Z,5.27
2018-12-13T11:27:48.216Z,4.98
2018-12-13T11:33:43.228Z,3.72
2018-12-13T11:39:38.248Z,5.67
2018-12-13T11:45:33.238Z,6.5
2018-12-13T11:51:28.238Z,6.47
2018-12-13T11:57:23.273Z,4.45
2018-12-13T12:03:18.297Z,3.96
2018-12-13T12:09:13.245Z,4.39
2018-12-13T12:15:08.269Z,3.08
2018-12-13T12:21:03.259Z,12.63
2018-12-13T12:26:58.292Z,4.13
2018-12-13T12:32:53.281Z,5.63
2018-12-13T12:38:48.266Z,2.98
2018-12-13T12:44:43.249Z,4.39
2018-12-13T12:50:38.283Z,4.32
2018-12-13T12:56:33.283Z,2.9
2018-12-13T13:02:28.348Z,2.14
2018-12-13T13:08:23.284Z,3.27
2018-12-13T13:14:18.305Z,3.05
2018-12-13T13:20:13.286Z,1.9
2018-12-13T13:26:08.274Z,2.29
2018-12-13T13:32:03.319Z,2.06
2018-12-13T13:37:58.292Z,2.45
2018-12-13T13:43:53.293Z,1.42
2018-12-13T13:49:48.358Z,1.24
2018-12-13T13:55:43.339Z,1.82
2018-12-13T14:01:38.315Z,1.18
2018-12-13T14:07:33.305Z,1.51
2018-12-13T14:13:28.346Z,1.46
2018-12-13T14:19:23.338Z,0.85
2018-12-13T14:25:18.331Z,1.41
2018-12-13T14:31:13.340Z,1.23
2018-12-13T14:37:08.346Z,1.07
2018-12-13T14:43:03.310Z,1.03
2018-12-13T14:48:58.334Z,0.9
2018-12-13T14:54:53.322Z,1.07
2018-12-13T15:00:48.360Z,0.98
2018-12-13T15:06:43.351Z,1.02
2018-12-13T15:12:38.353Z,0.88
2018-12-13T15:18:33.408Z,0.9
2018-12-13T15:24:28.351Z,0.98
2018-12-13T15:30:23.411Z,1.18
2018-12-13T15:36:18.347Z,5.77
2018-12-13T15:42:13.372Z,1.12
2018-12-13T15:48:08.383Z,0.9
2018-12-13T15:54:03.383Z,7.18
2018-12-13T15:59:58.424Z,25.63
2018-12-13T16:05:53.414Z,6.19
2018-12-13T16:11:48.431Z,7.27
2018-12-13T16:17:43.383Z,3.82
2018-12-13T16:23:38.371Z,3.09
2018-12-13T16:29:33.399Z,3.98
2018-12-13T16:35:28.397Z,2.79
2018-12-13T16:41:23.388Z,3.49
2018-12-13T16:47:18.429Z,3.15
2018-12-13T16:53:13.393Z,2.06
2018-12-13T16:59:08.402Z,2.57
2018-12-13T17:05:03.625Z,2.38
2018-12-13T17:10:58.410Z,4.71
2018-12-13T17:16:53.409Z,17.05
2018-12-13T17:22:48.436Z,3.77
2018-12-13T17:28:43.399Z,8.81
2018-12-13T17:34:38.434Z,2.36
2018-12-13T17:40:33.408Z,2.31
2018-12-13T17:46:28.423Z,4.79
2018-12-13T17:52:23.438Z,2.56
2018-12-13T17:58:18.461Z,2.61
2018-12-13T18:04:13.421Z,2.2
2018-12-13T18:10:08.438Z,2.09
2018-12-13T18:16:03.436Z,2.05
2018-12-13T18:21:59.658Z,2.07
2018-12-13T18:27:53.435Z,2.09
2018-12-13T18:33:48.448Z,4.68
2018-12-13T18:39:43.457Z,5.41
2018-12-13T18:45:38.443Z,31.95
2018-12-13T18:51:33.466Z,7.82
2018-12-13T18:57:28.476Z,5.26
2018-12-13T19:03:23.471Z,5.08
2018-12-13T19:09:18.479Z,7.05
2018-12-13T19:15:13.492Z,2.62
2018-12-13T19:21:08.477Z,3.85
2018-12-13T19:27:03.477Z,3.02
2018-12-13T19:32:58.484Z,2.5
2018-12-13T19:38:53.490Z,2.97
2018-12-13T19:44:48.471Z,7.83
2018-12-13T19:50:43.463Z,2.13
2018-12-13T19:56:38.480Z,2.32
2018-12-13T20:02:33.495Z,2.88
2018-12-13T20:08:28.483Z,2.2
2018-12-13T20:14:23.491Z,2.96
2018-12-13T20:20:18.488Z,2.13
2018-12-13T20:26:13.524Z,1.83
2018-12-13T20:32:08.509Z,1.53
2018-12-13T20:38:03.511Z,1.48
2018-12-13T20:43:58.542Z,1.35
2018-12-13T20:49:53.511Z,3.08
2018-12-13T20:55:48.515Z,1.73
2018-12-13T21:01:43.554Z,1.33
2018-12-13T21:07:38.532Z,1.54
2018-12-13T21:13:33.520Z,1.28
2018-12-13T21:19:28.558Z,1.52
2018-12-13T21:25:23.518Z,1.67
2018-12-13T21:31:18.542Z,1.43
2018-12-13T21:37:13.527Z,1.56
2018-12-13T21:43:08.559Z,1.33
2018-12-13T21:49:03.547Z,1.71
2018-12-13T21:54:58.616Z,1.61
2018-12-13T22:00:53.579Z,1.83
2018-12-13T22:06:48.601Z,1.3
2018-12-13T22:12:43.560Z,1.42
2018-12-13T22:18:38.616Z,1.83
2018-12-13T22:24:33.538Z,2.1
2018-12-13T22:30:28.569Z,2.35
2018-12-13T22:36:23.574Z,1.76
2018-12-13T22:42:18.570Z,2.08
2018-12-13T22:48:13.600Z,2.73
2018-12-13T22:54:08.611Z,2.39
2018-12-13T23:00:03.596Z,2.05
2018-12-13T23:05:58.555Z,3.2
2018-12-13T23:11:53.598Z,2.31
2018-12-13T23:17:48.607Z,2.26
2018-12-13T23:23:43.646Z,1.7
2018-12-13T23:29:38.623Z,1.53
2018-12-13T23:35:33.603Z,2.19
2018-12-13T23:41:28.607Z,2.3
2018-12-13T23:47:23.681Z,2.18
2018-12-13T23:53:18.597Z,1.77
2018-12-13T23:59:13.611Z,2.32
